Terminal Aerodrome Forecast
Issued by NWS

Home | Current Version | Previous Version | Text Only | Print | Product List | Glossary On
Versions: 1 2 3 4 5 6 7 8 9 10 11 12 13 14 15 16 17 18 19 20 21 22 23 24 25 26 27 28 29 30 31 32
000
FTUS44 KHGX 222001 AAA
TAFCXO
TAF AMD
KCXO 222001Z 2220/2318 36007G14KT P6SM VCSH FEW040 SCT060
     FM222100 01008KT P6SM SKC
     FM230100 01003KT P6SM SKC
     FM230900 00000KT P6SM MIFG SKC
     FM231500 08007KT P6SM SKC=

USA.gov is the U.S. government's official web portal to all federal, state and local government web resources and services.